Time;durP1;ratioP1;P1;durP2;ratioP2;P2;SDS_P1;SDS_P2;PMS_P1;PMS_P2;Temp;Humidity;BMP_temperature;BMP_pressure;BME280_temperature;BME280_humidity;BME280_pressure;Samples;Min_cycle;Max_cycle;Signal;HPM_P1;HPM_P2
2023/02/05 00:02:00;;;;;;;5.55;4.18;;;1.30;99.90;;;;;;5075932;28;20222;-82
2023/02/05 00:04:26;;;;;;;8.50;4.67;;;1.30;99.90;;;;;;5093754;28;20586;-82
2023/02/05 00:06:52;;;;;;;8.53;5.13;;;1.30;99.90;;;;;;5094257;28;20763;-82
2023/02/05 00:09:18;;;;;;;9.13;5.00;;;1.30;99.90;;;;;;5093775;28;20181;-81
2023/02/05 00:11:43;;;;;;;6.37;5.10;;;1.30;99.90;;;;;;5075769;28;20634;-82
2023/02/05 00:14:09;;;;;;;8.20;6.07;;;1.30;99.90;;;;;;5093730;28;20416;-82
2023/02/05 00:16:35;;;;;;;7.43;5.05;;;1.40;99.90;;;;;;5075729;28;20181;-82
2023/02/05 00:19:01;;;;;;;7.83;4.80;;;1.50;99.90;;;;;;5093977;28;20208;-83
2023/02/05 00:21:27;;;;;;;6.40;4.40;;;1.40;99.90;;;;;;5093972;28;20770;-83
2023/02/05 00:23:53;;;;;;;7.30;4.90;;;1.50;99.90;;;;;;5075539;28;20817;-82
2023/02/05 00:26:19;;;;;;;7.80;5.03;;;1.50;99.90;;;;;;5075679;28;20184;-83
2023/02/05 00:28:45;;;;;;;5.68;4.45;;;1.50;99.90;;;;;;5075434;28;20283;-82
2023/02/05 00:31:22;;;;;;;6.22;4.47;;;1.50;99.90;;;;;;5075576;28;20177;-82
2023/02/05 00:33:49;;;;;;;6.80;4.60;;;1.40;99.90;;;;;;5075370;28;20774;-82
2023/02/05 00:36:16;;;;;;;5.53;4.22;;;1.40;99.90;;;;;;5093881;28;20196;-82
2023/02/05 00:38:43;;;;;;;7.63;5.32;;;1.40;99.90;;;;;;5075213;28;20219;-82
2023/02/05 00:41:10;;;;;;;6.00;4.47;;;1.40;99.90;;;;;;5075420;28;20177;-82
2023/02/05 00:43:36;;;;;;;8.50;5.13;;;1.40;99.90;;;;;;5075225;28;20669;-82
2023/02/05 00:46:02;;;;;;;6.10;4.93;;;1.40;99.90;;;;;;5093775;28;20683;-82
2023/02/05 00:48:28;;;;;;;6.90;5.20;;;1.40;99.90;;;;;;5093253;28;20201;-82
2023/02/05 00:50:54;;;;;;;5.20;4.13;;;1.40;99.90;;;;;;5093257;28;20204;-82
2023/02/05 00:53:20;;;;;;;7.10;4.60;;;1.40;99.90;;;;;;5075276;28;20420;-82
2023/02/05 00:55:46;;;;;;;6.28;4.50;;;1.40;99.90;;;;;;5093520;28;20409;-83
2023/02/05 00:58:12;;;;;;;6.30;4.40;;;1.40;99.90;;;;;;5093126;28;20189;-82
2023/02/05 01:00:38;;;;;;;5.85;4.25;;;1.50;99.90;;;;;;5093347;28;20204;-82
2023/02/05 01:03:04;;;;;;;5.95;4.32;;;1.50;99.90;;;;;;5076902;28;20204;-82
2023/02/05 01:05:32;;;;;;;6.63;3.70;;;1.50;99.90;;;;;;5078632;28;20176;-82
2023/02/05 01:07:57;;;;;;;5.95;4.40;;;1.50;99.90;;;;;;5078554;28;20216;-82
2023/02/05 01:10:24;;;;;;;6.10;4.97;;;1.60;99.90;;;;;;5096892;28;20173;-82
2023/02/05 01:12:50;;;;;;;6.00;4.43;;;1.60;99.90;;;;;;5078641;28;20330;-83
2023/02/05 01:15:16;;;;;;;8.27;4.90;;;1.60;99.90;;;;;;5096748;28;20265;-83
2023/02/05 01:17:42;;;;;;;6.38;4.55;;;1.70;99.90;;;;;;5078453;28;20201;-82
2023/02/05 01:20:09;;;;;;;6.32;4.90;;;1.70;99.90;;;;;;5078423;28;20302;-82
2023/02/05 01:22:36;;;;;;;6.53;4.50;;;1.70;99.90;;;;;;5096704;28;20205;-82
2023/02/05 01:25:02;;;;;;;5.45;4.13;;;1.70;99.90;;;;;;5096566;28;20169;-83
2023/02/05 01:27:28;;;;;;;9.95;4.97;;;1.70;99.90;;;;;;5096395;28;20200;-82
2023/02/05 01:29:53;;;;;;;8.60;5.07;;;1.70;99.90;;;;;;5096429;28;20225;-82
2023/02/05 01:32:19;;;;;;;18.77;9.50;;;1.80;99.90;;;;;;5078272;28;20408;-82
2023/02/05 01:34:45;;;;;;;25.60;11.67;;;1.80;99.90;;;;;;5078202;28;20187;-81
2023/02/05 01:37:11;;;;;;;18.77;8.00;;;1.80;99.90;;;;;;5096723;28;20490;-82
2023/02/05 01:39:37;;;;;;;12.70;6.37;;;1.80;99.90;;;;;;5096256;28;20219;-83
2023/02/05 01:42:10;;;;;;;7.07;4.60;;;1.80;99.90;;;;;;5096762;28;20405;-82
2023/02/05 01:44:36;;;;;;;7.05;5.18;;;1.70;99.90;;;;;;5078025;28;20387;-82
2023/02/05 01:47:01;;;;;;;6.47;5.40;;;1.70;99.90;;;;;;5078291;28;20185;-83
2023/02/05 01:49:31;;;;;;;5.33;4.47;;;1.70;99.90;;;;;;5096027;28;20207;-82
2023/02/05 01:52:01;;;;;;;7.30;5.43;;;1.70;99.90;;;;;;5096671;28;20173;-83
2023/02/05 01:54:30;;;;;;;5.88;4.93;;;1.70;99.90;;;;;;5077905;28;20184;-83
2023/02/05 01:57:02;;;;;;;8.82;6.25;;;1.70;99.90;;;;;;5078239;28;20181;-83
2023/02/05 01:59:31;;;;;;;9.27;5.78;;;1.70;99.90;;;;;;5077701;28;20212;-82
2023/02/05 02:01:59;;;;;;;5.25;4.72;;;1.60;99.90;;;;;;5096300;28;20176;-83
2023/02/05 02:04:40;;;;;;;7.00;4.88;;;1.60;99.90;;;;;;5095772;28;20176;-82
2023/02/05 02:07:09;;;;;;;8.77;5.28;;;1.70;99.90;;;;;;5096259;28;20188;-83
2023/02/05 02:09:37;;;;;;;5.93;4.70;;;1.60;99.90;;;;;;5095627;28;20275;-83
2023/02/05 02:12:03;;;;;;;7.25;5.65;;;1.60;99.90;;;;;;5077591;28;20231;-83
2023/02/05 02:14:31;;;;;;;6.05;4.95;;;1.60;99.90;;;;;;5094463;28;20177;-82
2023/02/05 02:17:01;;;;;;;9.05;5.57;;;1.60;99.90;;;;;;5077711;28;20184;-82
2023/02/05 02:19:49;;;;;;;6.90;5.07;;;1.60;99.90;;;;;;5077311;28;20235;-83
2023/02/05 02:22:54;;;;;;;8.00;5.43;;;1.60;99.90;;;;;;5095406;28;20270;-83
2023/02/05 02:25:34;;;;;;;6.10;4.90;;;1.50;99.90;;;;;;5095626;28;20519;-83
2023/02/05 02:28:12;;;;;;;8.07;4.93;;;1.60;99.90;;;;;;5095381;28;20192;-83
2023/02/05 02:30:41;;;;;;;7.82;5.35;;;1.60;99.90;;;;;;5077109;28;20188;-82
2023/02/05 02:33:30;;;;;;;7.93;4.43;;;1.60;99.90;;;;;;5077098;28;20681;-82
2023/02/05 02:35:56;;;;;;;8.15;5.20;;;1.70;99.90;;;;;;5077682;28;20187;-83
2023/02/05 02:38:43;;;;;;;7.17;5.07;;;1.70;99.90;;;;;;5095043;28;20604;-82
2023/02/05 02:41:17;;;;;;;9.52;5.05;;;1.70;99.90;;;;;;5095527;28;20295;-82
2023/02/05 02:43:56;;;;;;;14.35;6.63;;;1.70;99.90;;;;;;5076860;28;20201;-82
2023/02/05 02:46:37;;;;;;;13.02;6.10;;;1.70;99.90;;;;;;5076860;28;20180;-83
2023/02/05 02:49:07;;;;;;;8.35;4.93;;;1.70;99.90;;;;;;5094981;28;20230;-82
2023/02/05 02:51:36;;;;;;;11.52;5.20;;;1.70;99.90;;;;;;5076709;28;20180;-83
2023/02/05 02:54:06;;;;;;;9.02;5.03;;;1.60;99.90;;;;;;5094876;28;20657;-82
2023/02/05 02:56:36;;;;;;;7.43;3.72;;;1.70;99.90;;;;;;5076487;28;20237;-82
2023/02/05 02:59:09;;;;;;;4.28;3.33;;;1.70;99.90;;;;;;5076441;28;20306;-83
2023/02/05 03:01:38;;;;;;;7.90;4.80;;;1.70;99.90;;;;;;5094794;28;20545;-82
2023/02/05 03:04:20;;;;;;;10.85;5.57;;;1.70;99.90;;;;;;5095064;28;20222;-83
2023/02/05 03:06:49;;;;;;;7.32;4.40;;;1.60;99.90;;;;;;5095471;28;20179;-83
2023/02/05 03:09:33;;;;;;;4.78;3.42;;;1.40;99.90;;;;;;5076359;28;20180;-82
2023/02/05 03:11:59;;;;;;;9.38;2.90;;;1.40;99.90;;;;;;5094677;28;20232;-82
2023/02/05 03:14:25;;;;;;;5.40;2.47;;;1.40;99.90;;;;;;5094485;28;20187;-83
2023/02/05 03:16:52;;;;;;;6.33;3.63;;;1.40;99.90;;;;;;5076440;28;20417;-82
2023/02/05 03:19:18;;;;;;;11.95;4.15;;;1.40;99.90;;;;;;5094371;28;20525;-82
2023/02/05 03:21:50;;;;;;;2.77;2.20;;;1.40;99.90;;;;;;5094700;28;20280;-82
2023/02/05 03:24:16;;;;;;;5.57;3.30;;;1.40;99.90;;;;;;5094318;28;20399;-82
2023/02/05 03:26:42;;;;;;;6.50;3.47;;;1.40;99.90;;;;;;5094455;28;20556;-82
2023/02/05 03:29:12;;;;;;;8.20;4.40;;;1.40;99.90;;;;;;5076063;28;20196;-82
2023/02/05 03:31:55;;;;;;;5.32;3.22;;;1.30;99.90;;;;;;5076172;28;20191;-83
2023/02/05 03:34:33;;;;;;;7.63;4.03;;;1.30;99.90;;;;;;5094336;28;20168;-82
2023/02/05 03:37:09;;;;;;;4.13;2.28;;;1.30;99.90;;;;;;5075778;28;20215;-82
2023/02/05 03:39:47;;;;;;;3.95;2.92;;;1.30;99.90;;;;;;5075871;28;20216;-82
2023/02/05 03:42:25;;;;;;;5.18;3.20;;;1.30;99.80;;;;;;5094598;28;20560;-83
2023/02/05 03:45:06;;;;;;;5.32;2.45;;;1.30;99.80;;;;;;5076273;28;20176;-84
2023/02/05 03:48:10;;;;;;;8.18;3.78;;;1.30;99.90;;;;;;5075838;28;20307;-83
2023/02/05 03:51:15;;;;;;;8.40;4.00;;;1.30;99.90;;;;;;5075734;28;20184;-82
2023/02/05 03:53:52;;;;;;;3.22;2.35;;;1.40;99.10;;;;;;5035158;28;20224;-82
2023/02/05 03:56:24;;;;;;;9.00;5.30;;;1.30;99.60;;;;;;5075976;28;20511;-83
2023/02/05 03:58:53;;;;;;;3.15;2.10;;;1.30;99.40;;;;;;5075751;28;20554;-82
2023/02/05 04:01:19;;;;;;;3.28;2.22;;;1.30;99.10;;;;;;5075908;28;20184;-82
2023/02/05 04:03:45;;;;;;;2.83;2.23;;;1.30;98.60;;;;;;5093738;28;20300;-82
2023/02/05 04:06:11;;;;;;;3.40;2.50;;;1.40;98.50;;;;;;5075795;28;20431;-82
2023/02/05 04:08:37;;;;;;;3.60;2.20;;;1.30;98.50;;;;;;5075620;28;20636;-82
2023/02/05 04:11:03;;;;;;;4.27;2.60;;;1.30;98.10;;;;;;5075600;28;20425;-83
2023/02/05 04:13:28;;;;;;;1.70;1.60;;;1.30;98.20;;;;;;5093693;28;20207;-82
2023/02/05 04:15:54;;;;;;;2.43;2.23;;;1.30;98.40;;;;;;5093909;28;20428;-83
2023/02/05 04:18:20;;;;;;;1.63;1.50;;;1.30;98.30;;;;;;5093628;28;20411;-83
2023/02/05 04:20:46;;;;;;;2.50;2.23;;;1.40;98.30;;;;;;5075522;28;20184;-83
2023/02/05 04:23:11;;;;;;;3.20;2.00;;;1.40;98.60;;;;;;5093586;28;20450;-83
2023/02/05 04:25:38;;;;;;;3.50;2.13;;;1.30;98.30;;;;;;5093466;28;20180;-81
2023/02/05 04:28:05;;;;;;;3.30;2.17;;;1.40;98.60;;;;;;5093589;28;20681;-82
2023/02/05 04:30:31;;;;;;;3.30;2.10;;;1.40;98.90;;;;;;5093894;28;20590;-82
2023/02/05 04:32:57;;;;;;;2.78;2.47;;;1.40;98.50;;;;;;5093489;28;20291;-82
2023/02/05 04:35:23;;;;;;;3.03;2.30;;;1.30;98.70;;;;;;5093494;28;20587;-83
2023/02/05 04:37:48;;;;;;;2.30;2.10;;;1.20;99.10;;;;;;5076966;28;20200;-82
2023/02/05 04:40:14;;;;;;;2.63;1.80;;;1.20;98.90;;;;;;5079240;28;20251;-83
2023/02/05 04:42:40;;;;;;;2.20;1.87;;;1.20;99.00;;;;;;5079054;28;20196;-82
2023/02/05 04:45:06;;;;;;;5.10;2.00;;;1.10;99.20;;;;;;5079243;28;20589;-83
2023/02/05 04:47:32;;;;;;;2.03;1.55;;;1.00;98.80;;;;;;5078931;28;20207;-82
2023/02/05 04:49:58;;;;;;;1.73;1.30;;;1.00;98.90;;;;;;5097247;28;20542;-82
2023/02/05 04:52:24;;;;;;;2.80;2.17;;;0.90;98.90;;;;;;5079014;28;20196;-83
2023/02/05 04:54:50;;;;;;;4.72;2.03;;;0.80;99.30;;;;;;5078822;28;20434;-82
2023/02/05 04:57:16;;;;;;;2.93;1.80;;;0.80;99.30;;;;;;5097062;28;20196;-82
2023/02/05 04:59:41;;;;;;;2.70;2.30;;;0.80;99.50;;;;;;5078769;28;20254;-82
2023/02/05 05:02:07;;;;;;;2.10;1.80;;;0.80;99.50;;;;;;5097792;28;20223;-82
2023/02/05 05:04:33;;;;;;;3.97;1.80;;;0.80;99.90;;;;;;5078772;28;20177;-83
2023/02/05 05:06:58;;;;;;;3.03;2.40;;;0.80;99.70;;;;;;5097562;28;20256;-83
2023/02/05 05:09:24;;;;;;;2.87;2.43;;;0.80;99.90;;;;;;5078683;28;20188;-82
2023/02/05 05:11:51;;;;;;;3.33;2.07;;;0.80;99.90;;;;;;5096665;28;20424;-83
2023/02/05 05:14:17;;;;;;;3.45;1.88;;;0.90;99.90;;;;;;5078721;28;20555;-82
2023/02/05 05:16:42;;;;;;;3.17;2.20;;;0.90;99.50;;;;;;5097143;28;20183;-83
2023/02/05 05:19:08;;;;;;;3.00;2.20;;;0.90;99.60;;;;;;5096651;28;20467;-82
2023/02/05 05:21:34;;;;;;;4.17;2.97;;;0.90;99.80;;;;;;5078482;28;20181;-84
2023/02/05 05:23:59;;;;;;;2.80;2.07;;;0.90;99.90;;;;;;5078426;28;20291;-83
2023/02/05 05:26:25;;;;;;;2.00;1.80;;;0.90;99.90;;;;;;5078542;28;20203;-83
2023/02/05 05:28:54;;;;;;;2.83;1.90;;;1.00;99.90;;;;;;5078279;28;20889;-83
2023/02/05 05:31:20;;;;;;;2.25;1.90;;;1.00;99.70;;;;;;5096837;28;20173;-83
2023/02/05 05:33:46;;;;;;;1.60;1.50;;;1.00;99.80;;;;;;5078183;28;20677;-82
2023/02/05 05:36:12;;;;;;;2.00;1.80;;;1.10;99.80;;;;;;5078539;28;20681;-82
2023/02/05 05:38:38;;;;;;;3.83;2.10;;;1.10;99.60;;;;;;5078008;28;20209;-83
2023/02/05 05:43:51;;;;;;;2.85;2.10;;;1.00;99.90;;;;;;5096530;28;20218;-82
2023/02/05 05:46:22;;;;;;;4.95;2.38;;;0.90;99.90;;;;;;5096556;28;20205;-82
2023/02/05 05:48:58;;;;;;;4.30;2.38;;;0.90;99.90;;;;;;5077686;28;20214;-83
2023/02/05 05:51:25;;;;;;;2.60;2.30;;;0.90;99.90;;;;;;5078208;28;20195;-82
2023/02/05 05:53:51;;;;;;;3.95;2.42;;;0.90;99.90;;;;;;5077924;28;20571;-83
2023/02/05 05:56:17;;;;;;;2.60;2.35;;;0.90;99.90;;;;;;5096411;28;20229;-82
2023/02/05 05:58:43;;;;;;;2.97;2.75;;;0.80;99.90;;;;;;5095757;28;20840;-83
2023/02/05 06:01:11;;;;;;;2.88;2.35;;;0.80;99.90;;;;;;5096128;28;20535;-83
2023/02/05 06:03:37;;;;;;;2.65;2.30;;;0.80;99.90;;;;;;5077590;28;20204;-82
2023/02/05 06:06:05;;;;;;;2.73;2.20;;;0.70;99.90;;;;;;5077873;28;20180;-82
2023/02/05 06:08:31;;;;;;;6.43;2.33;;;0.60;99.90;;;;;;5077579;28;20208;-82
2023/02/05 06:10:57;;;;;;;3.58;2.00;;;0.50;99.90;;;;;;5095594;28;20165;-83
2023/02/05 06:13:23;;;;;;;3.00;2.30;;;0.50;99.90;;;;;;5095617;28;20200;-82
2023/02/05 06:15:49;;;;;;;4.30;2.63;;;0.50;99.90;;;;;;5077475;28;20187;-83
2023/02/05 06:18:16;;;;;;;3.55;2.63;;;0.40;99.90;;;;;;5077428;28;20212;-82
2023/02/05 06:20:41;;;;;;;3.97;2.90;;;0.40;99.90;;;;;;5096296;28;20211;-83
2023/02/05 06:23:07;;;;;;;3.33;2.70;;;0.40;99.90;;;;;;5077369;28;20666;-83
2023/02/05 06:25:33;;;;;;;3.37;2.63;;;0.40;99.90;;;;;;5077568;28;20184;-83
2023/02/05 06:27:59;;;;;;;4.88;3.10;;;0.50;99.90;;;;;;5077129;28;20205;-83
2023/02/05 06:30:25;;;;;;;4.10;2.50;;;0.40;99.90;;;;;;5077279;28;20606;-82
2023/02/05 06:32:51;;;;;;;4.00;2.70;;;0.50;99.90;;;;;;5095205;28;20464;-83
2023/02/05 06:35:18;;;;;;;5.00;2.83;;;0.50;99.90;;;;;;5095340;28;20409;-83
2023/02/05 06:37:44;;;;;;;3.50;2.88;;;0.60;99.90;;;;;;5076899;28;20249;-82
2023/02/05 06:40:10;;;;;;;6.80;2.77;;;0.60;99.90;;;;;;5076911;28;20216;-83
2023/02/05 06:42:36;;;;;;;4.50;3.05;;;0.60;99.90;;;;;;5094978;28;20718;-82
2023/02/05 06:45:03;;;;;;;4.93;2.80;;;0.70;99.90;;;;;;5094992;28;20192;-83
2023/02/05 06:47:29;;;;;;;2.97;2.67;;;0.70;99.90;;;;;;5076763;28;20254;-83
2023/02/05 06:49:54;;;;;;;4.20;3.73;;;0.70;99.90;;;;;;5076706;28;20177;-82
2023/02/05 06:52:20;;;;;;;16.60;10.50;;;0.80;99.90;;;;;;5077103;28;20551;-83
2023/02/05 06:54:48;;;;;;;15.20;11.10;;;0.80;99.90;;;;;;5076645;28;20429;-82
2023/02/05 06:57:14;;;;;;;19.52;14.32;;;0.80;99.90;;;;;;5076510;28;20679;-82
2023/02/05 06:59:40;;;;;;;7.80;5.83;;;0.90;99.90;;;;;;5076144;28;20242;-82
2023/02/05 07:02:05;;;;;;;11.10;6.50;;;0.90;99.90;;;;;;5076894;28;20198;-82
2023/02/05 07:04:31;;;;;;;10.50;5.80;;;0.90;99.90;;;;;;5094814;28;20264;-81
2023/02/05 07:06:57;;;;;;;7.33;4.30;;;1.00;99.90;;;;;;5076985;28;20181;-82
2023/02/05 07:09:23;;;;;;;13.37;7.07;;;1.00;99.90;;;;;;5076438;28;20188;-83
2023/02/05 07:11:49;;;;;;;9.57;6.88;;;1.10;99.90;;;;;;5072852;28;20319;-83
2023/02/05 07:14:15;;;;;;;7.33;6.20;;;1.10;99.90;;;;;;5073051;28;20209;-81
2023/02/05 07:16:41;;;;;;;5.67;5.00;;;1.20;99.90;;;;;;5074196;28;20384;-82
2023/02/05 07:19:07;;;;;;;7.80;5.70;;;1.10;99.90;;;;;;5074078;28;20461;-83
2023/02/05 07:21:32;;;;;;;11.37;6.50;;;1.20;99.90;;;;;;5073097;28;20641;-82
2023/02/05 07:23:58;;;;;;;6.23;4.13;;;1.20;99.90;;;;;;5072750;28;20224;-82
2023/02/05 07:26:24;;;;;;;5.20;3.27;;;1.30;99.90;;;;;;5072904;28;20195;-82
2023/02/05 07:28:50;;;;;;;5.40;3.40;;;1.50;99.90;;;;;;5073960;28;20441;-83
2023/02/05 07:31:17;;;;;;;3.00;2.70;;;1.80;99.90;;;;;;5072870;28;20184;-83
2023/02/05 07:33:44;;;;;;;6.05;3.75;;;1.90;99.90;;;;;;5072601;28;20417;-83
2023/02/05 07:36:15;;;;;;;4.75;3.60;;;2.10;99.90;;;;;;5072901;28;20264;-83
2023/02/05 07:38:41;;;;;;;7.38;4.63;;;2.30;99.90;;;;;;5072495;28;20584;-83
2023/02/05 07:41:08;;;;;;;6.70;4.35;;;2.50;99.90;;;;;;5072703;28;20204;-83
2023/02/05 07:43:34;;;;;;;4.97;3.33;;;2.80;99.90;;;;;;5072712;28;20200;-84
2023/02/05 07:46:06;;;;;;;3.85;2.45;;;3.00;99.70;;;;;;5072658;28;20200;-83
2023/02/05 07:48:32;;;;;;;5.38;4.70;;;3.20;99.40;;;;;;5073719;28;20611;-83
2023/02/05 07:50:58;;;;;;;4.30;3.67;;;3.50;99.30;;;;;;5072604;28;20180;-84
2023/02/05 07:53:24;;;;;;;4.37;3.47;;;4.00;98.60;;;;;;5072645;28;20193;-83
2023/02/05 07:55:50;;;;;;;3.00;2.55;;;4.50;97.60;;;;;;5072417;28;20507;-82
2023/02/05 07:58:17;;;;;;;3.50;2.87;;;5.20;96.90;;;;;;5072399;28;20240;-83
2023/02/05 08:00:42;;;;;;;4.40;3.15;;;5.90;95.80;;;;;;5072365;28;20216;-83
2023/02/05 08:03:08;;;;;;;8.67;4.03;;;6.70;94.70;;;;;;5073621;28;20223;-84
2023/02/05 08:05:36;;;;;;;3.03;2.53;;;7.50;93.40;;;;;;5073722;28;20565;-83
2023/02/05 08:08:03;;;;;;;2.55;2.20;;;8.30;91.50;;;;;;5072323;28;20197;-85
2023/02/05 08:10:28;;;;;;;3.50;3.00;;;9.20;90.60;;;;;;5073802;28;20634;-84
2023/02/05 08:12:54;;;;;;;3.87;3.47;;;9.90;88.20;;;;;;5076017;28;20251;-84
2023/02/05 08:15:20;;;;;;;3.60;2.27;;;10.60;85.30;;;;;;5076391;28;20393;-84
2023/02/05 08:17:46;;;;;;;3.20;2.90;;;11.20;80.50;;;;;;5076196;28;20208;-84
2023/02/05 08:20:12;;;;;;;3.73;3.00;;;11.60;78.80;;;;;;5076308;28;20220;-84
2023/02/05 08:22:40;;;;;;;2.93;2.23;;;12.10;77.40;;;;;;5076238;28;20487;-84
2023/02/05 08:25:08;;;;;;;4.82;3.05;;;12.60;79.30;;;;;;5076384;28;20268;-84
2023/02/05 08:27:36;;;;;;;3.72;3.15;;;13.20;72.90;;;;;;5077400;28;20236;-85
2023/02/05 08:30:03;;;;;;;3.53;2.92;;;13.70;70.80;;;;;;5076168;28;20561;-85
2023/02/05 08:32:29;;;;;;;3.20;2.90;;;14.10;69.00;;;;;;5077263;28;20246;-84
2023/02/05 08:34:55;;;;;;;7.00;3.47;;;14.50;65.80;;;;;;5076060;28;20181;-84
2023/02/05 08:37:20;;;;;;;3.73;2.80;;;15.00;64.90;;;;;;5075939;28;20205;-85
2023/02/05 08:39:48;;;;;;;3.30;2.47;;;15.40;64.00;;;;;;5077108;28;20571;-83
2023/02/05 08:42:13;;;;;;;3.77;2.67;;;15.80;63.60;;;;;;5075802;28;20204;-84
2023/02/05 08:44:39;;;;;;;3.10;2.67;;;16.10;63.60;;;;;;5075909;28;20414;-85
2023/02/05 08:47:05;;;;;;;3.77;3.47;;;16.30;60.40;;;;;;5076367;28;20197;-85
2023/02/05 08:49:31;;;;;;;4.00;3.60;;;16.20;59.60;;;;;;5075773;28;20551;-84
2023/02/05 08:51:57;;;;;;;4.90;4.13;;;16.20;59.20;;;;;;5077499;28;20177;-85
2023/02/05 08:54:23;;;;;;;4.07;3.30;;;16.30;58.70;;;;;;5075738;28;20414;-84
2023/02/05 08:56:50;;;;;;;3.50;2.80;;;16.40;61.80;;;;;;5075819;28;20437;-85
2023/02/05 08:59:17;;;;;;;4.17;3.70;;;16.60;61.50;;;;;;5076742;28;20475;-86
2023/02/05 09:01:43;;;;;;;4.93;3.30;;;16.50;57.90;;;;;;5075718;28;20460;-85
2023/02/05 09:04:22;;;;;;;5.23;3.17;;;16.30;59.40;;;;;;5075880;28;20466;-84
2023/02/05 09:06:48;;;;;;;3.40;2.60;;;16.20;58.70;;;;;;5075877;28;20425;-86
2023/02/05 09:09:13;;;;;;;3.10;2.77;;;16.30;57.80;;;;;;5075433;28;20467;-84
2023/02/05 09:11:40;;;;;;;2.80;2.50;;;16.20;56.40;;;;;;5084472;28;20559;-86
2023/02/05 09:14:07;;;;;;;2.70;2.37;;;16.10;59.10;;;;;;5078586;28;20285;-83
2023/02/05 09:16:33;;;;;;;2.93;2.73;;;15.90;61.80;;;;;;5078797;28;21005;-83
2023/02/05 09:19:00;;;;;;;2.40;2.20;;;15.60;59.50;;;;;;5096653;28;20491;-84
2023/02/05 09:21:26;;;;;;;3.23;2.93;;;15.40;58.10;;;;;;5078613;28;20432;-86
2023/02/05 09:23:53;;;;;;;2.87;2.10;;;15.10;59.20;;;;;;5077726;28;20444;-85
2023/02/05 09:26:19;;;;;;;3.10;2.60;;;14.90;67.40;;;;;;5097638;28;20986;-86
2023/02/05 09:28:45;;;;;;;2.77;2.57;;;14.80;59.10;;;;;;5079626;28;20422;-84
2023/02/05 09:31:18;;;;;;;3.33;2.30;;;14.70;60.00;;;;;;5097062;28;20493;-84
2023/02/05 09:33:44;;;;;;;3.57;2.80;;;14.40;61.00;;;;;;5079288;28;20436;-85
2023/02/05 09:36:17;;;;;;;4.40;2.77;;;14.40;58.20;;;;;;5078176;28;20941;-85
2023/02/05 09:38:44;;;;;;;4.30;2.53;;;14.60;59.60;;;;;;5096216;28;20505;-85
2023/02/05 09:41:21;;;;;;;4.83;2.50;;;14.90;58.60;;;;;;5078300;28;20932;-84
2023/02/05 09:44:07;;;;;;;2.97;2.67;;;15.20;58.70;;;;;;5096287;28;20925;-84
2023/02/05 09:46:54;;;;;;;2.90;2.30;;;15.40;57.70;;;;;;5078157;28;20425;-84
2023/02/05 09:49:28;;;;;;;4.93;3.10;;;15.40;58.20;;;;;;5096277;28;20402;-85
2023/02/05 09:52:19;;;;;;;2.57;2.37;;;15.60;59.30;;;;;;5096103;28;20514;-84
2023/02/05 09:54:51;;;;;;;3.77;2.40;;;16.00;56.80;;;;;;5086674;28;20431;-84
2023/02/05 09:57:32;;;;;;;2.17;1.97;;;16.20;56.50;;;;;;5077762;28;20498;-85
2023/02/05 09:59:58;;;;;;;2.30;2.00;;;16.20;56.00;;;;;;5096077;28;20456;-85
2023/02/05 10:02:36;;;;;;;2.63;2.00;;;16.10;55.40;;;;;;5077617;28;20444;-85
2023/02/05 10:05:04;;;;;;;2.70;2.33;;;15.60;56.40;;;;;;5077856;28;20404;-84
2023/02/05 10:08:04;;;;;;;2.53;2.33;;;15.40;59.00;;;;;;5077547;28;20451;-84
2023/02/05 10:10:44;;;;;;;3.90;3.00;;;15.10;64.90;;;;;;5057976;28;20432;-84
2023/02/05 10:13:37;;;;;;;2.97;2.40;;;14.40;57.60;;;;;;5077607;28;20453;-84
2023/02/05 10:16:14;;;;;;;3.13;2.83;;;13.70;59.90;;;;;;5077667;28;20435;-84
2023/02/05 10:19:25;;;;;;;3.07;2.13;;;13.00;58.80;;;;;;5077431;28;20830;-84
2023/02/05 10:22:27;;;;;;;3.22;2.60;;;12.40;65.80;;;;;;5077949;28;20441;-83
2023/02/05 10:25:16;;;;;;;1.77;1.50;;;11.70;63.30;;;;;;5095616;28;20183;-84
2023/02/05 10:28:04;;;;;;;3.15;2.40;;;11.10;65.30;;;;;;5077140;28;20208;-83
2023/02/05 10:30:45;;;;;;;3.33;2.45;;;10.40;62.80;;;;;;5077160;28;20186;-84
2023/02/05 10:33:23;;;;;;;4.50;2.88;;;9.90;65.50;;;;;;5077235;28;20614;-83
2023/02/05 10:36:01;;;;;;;2.17;1.90;;;9.60;64.40;;;;;;5094239;28;20557;-83
2023/02/05 10:38:31;;;;;;;4.88;3.00;;;9.30;72.10;;;;;;5076970;28;20257;-83
2023/02/05 10:41:03;;;;;;;3.17;2.72;;;9.10;70.20;;;;;;5077215;28;20698;-84
2023/02/05 10:43:37;;;;;;;3.17;2.88;;;8.80;65.10;;;;;;5076917;28;20291;-83
2023/02/05 10:46:04;;;;;;;3.55;1.77;;;8.50;66.30;;;;;;5095518;28;20175;-83
2023/02/05 10:48:38;;;;;;;3.10;2.40;;;8.40;77.20;;;;;;5094912;28;20204;-82
2023/02/05 10:51:23;;;;;;;2.60;2.40;;;8.30;75.20;;;;;;5095196;28;20164;-84
2023/02/05 10:53:49;;;;;;;2.55;2.17;;;8.10;72.90;;;;;;5076712;28;20206;-83
2023/02/05 10:56:18;;;;;;;3.10;2.80;;;7.90;72.30;;;;;;5095263;28;20164;-83
2023/02/05 10:58:56;;;;;;;3.00;2.53;;;7.70;68.20;;;;;;5076592;28;20213;-83
2023/02/05 11:01:35;;;;;;;2.03;1.88;;;7.40;68.50;;;;;;5077001;28;20172;-84
2023/02/05 11:04:13;;;;;;;2.97;2.17;;;7.30;68.40;;;;;;5094780;28;20565;-83
2023/02/05 11:06:51;;;;;;;3.20;2.40;;;7.30;77.80;;;;;;5076474;28;20263;-83
2023/02/05 11:09:23;;;;;;;2.58;2.38;;;7.50;79.30;;;;;;5076495;28;20180;-82
2023/02/05 11:12:08;;;;;;;3.40;2.92;;;7.50;69.70;;;;;;5072770;28;20315;-84
2023/02/05 11:14:42;;;;;;;2.67;2.35;;;7.60;74.50;;;;;;5074341;28;20161;-83
2023/02/05 11:17:18;;;;;;;3.03;2.72;;;7.70;75.70;;;;;;5073124;28;20546;-83
2023/02/05 11:19:55;;;;;;;2.40;2.00;;;7.60;70.70;;;;;;5074107;28;20223;-83
2023/02/05 11:22:30;;;;;;;3.42;2.67;;;7.50;69.70;;;;;;5074235;28;20231;-83
2023/02/05 11:25:15;;;;;;;1.25;1.15;;;7.40;70.70;;;;;;5072866;28;20180;-83
2023/02/05 11:27:52;;;;;;;2.42;1.95;;;7.20;80.50;;;;;;5072821;28;20205;-84
2023/02/05 11:30:24;;;;;;;1.70;1.60;;;7.10;78.00;;;;;;5074237;28;20195;-82
2023/02/05 11:32:51;;;;;;;1.98;1.83;;;7.10;78.10;;;;;;5074014;28;20204;-83
2023/02/05 11:35:19;;;;;;;1.80;1.70;;;7.00;77.90;;;;;;5074049;28;20176;-83
2023/02/05 11:37:48;;;;;;;4.07;2.55;;;6.80;76.50;;;;;;5072645;28;20564;-83
2023/02/05 11:40:30;;;;;;;2.50;2.30;;;6.60;69.80;;;;;;5072557;28;20216;-82
2023/02/05 11:43:00;;;;;;;3.50;2.40;;;6.40;69.90;;;;;;5073909;28;20196;-82
2023/02/05 11:45:27;;;;;;;2.28;2.08;;;6.20;70.20;;;;;;5073910;28;20184;-84
2023/02/05 11:47:53;;;;;;;3.55;2.55;;;6.10;74.90;;;;;;5072159;28;20621;-82
2023/02/05 11:50:24;;;;;;;1.17;1.10;;;6.00;70.50;;;;;;5073818;28;20265;-83
2023/02/05 11:52:51;;;;;;;4.50;2.25;;;5.90;77.80;;;;;;5073112;28;20212;-83
2023/02/05 11:55:28;;;;;;;2.75;2.55;;;5.90;74.10;;;;;;5073729;28;20180;-82
2023/02/05 11:58:22;;;;;;;2.08;1.80;;;5.80;71.70;;;;;;5072457;28;20204;-82
2023/02/05 12:00:57;;;;;;;3.10;2.28;;;5.70;70.90;;;;;;5057145;28;20315;-82
2023/02/05 12:03:29;;;;;;;4.18;3.22;;;5.60;70.90;;;;;;5072264;28;20208;-83
2023/02/05 12:06:19;;;;;;;3.83;3.15;;;5.50;72.00;;;;;;5072752;28;20189;-82
2023/02/05 12:08:51;;;;;;;2.95;2.08;;;5.40;71.70;;;;;;5072191;28;20197;-82
2023/02/05 12:11:29;;;;;;;3.75;2.50;;;5.50;80.10;;;;;;5072254;28;20282;-82
2023/02/05 12:14:38;;;;;;;5.80;3.65;;;5.40;72.00;;;;;;5073586;28;20226;-82
2023/02/05 12:17:17;;;;;;;3.80;1.35;;;5.30;71.80;;;;;;5063393;28;20236;-82
2023/02/05 12:20:10;;;;;;;2.70;2.50;;;5.30;76.20;;;;;;5073614;28;20201;-83
2023/02/05 12:23:05;;;;;;;3.80;2.45;;;5.30;72.30;;;;;;5072235;28;20693;-83
2023/02/05 12:25:40;;;;;;;4.43;2.90;;;5.30;77.00;;;;;;5072158;28;20272;-82
2023/02/05 12:28:18;;;;;;;3.15;2.75;;;5.40;72.40;;;;;;5072022;28;20215;-81
2023/02/05 12:31:14;;;;;;;3.78;3.20;;;5.40;72.40;;;;;;5072149;28;20181;-82
2023/02/05 12:34:08;;;;;;;3.53;1.20;;;5.50;75.90;;;;;;5073359;28;20239;-82
2023/02/05 12:36:58;;;;;;;5.15;3.40;;;5.70;84.70;;;;;;5070920;28;20254;-81
2023/02/05 12:39:35;;;;;;;4.38;3.50;;;5.60;73.80;;;;;;5073368;28;20592;-82
2023/02/05 12:42:08;;;;;;;5.05;3.30;;;5.70;72.50;;;;;;5072351;28;20642;-82
2023/02/05 12:44:54;;;;;;;4.65;3.63;;;5.70;72.90;;;;;;5072059;28;20272;-83
2023/02/05 12:47:39;;;;;;;3.83;3.30;;;5.80;75.00;;;;;;5073000;28;20193;-84
2023/02/05 12:50:33;;;;;;;3.08;2.55;;;5.90;72.40;;;;;;5071980;28;20268;-83
2023/02/05 12:53:19;;;;;;;3.95;3.05;;;6.00;71.90;;;;;;5070599;28;20197;-82
2023/02/05 12:56:26;;;;;;;4.40;2.70;;;5.90;72.10;;;;;;5071892;28;20177;-82
2023/02/05 12:58:58;;;;;;;3.58;3.00;;;5.90;71.00;;;;;;5068229;28;20632;-82
2023/02/05 13:01:54;;;;;;;5.32;3.30;;;5.90;71.80;;;;;;5075757;28;20176;-82
2023/02/05 13:04:36;;;;;;;2.72;2.30;;;5.90;74.60;;;;;;5073953;28;20242;-81
2023/02/05 13:07:23;;;;;;;5.18;3.28;;;5.90;71.90;;;;;;5077271;28;20260;-83
2023/02/05 13:10:02;;;;;;;3.05;2.60;;;5.90;71.20;;;;;;5076695;28;20157;-82
2023/02/05 13:12:36;;;;;;;6.47;3.58;;;5.80;72.70;;;;;;5075208;28;20237;-83
2023/02/05 13:15:09;;;;;;;6.30;4.20;;;5.80;75.00;;;;;;5076526;28;20165;-83
2023/02/05 13:17:40;;;;;;;4.43;4.03;;;5.80;77.00;;;;;;5075273;28;20701;-83
2023/02/05 13:20:17;;;;;;;4.63;4.15;;;5.80;72.80;;;;;;5075221;28;20231;-82